sensor_id;sensor_type;location;lat;lon;timestamp;P1;durP1;ratioP1;P2;durP2;ratioP2
43702;SDS011;29304;56.146;40.396;2022-09-13T00:00:06;7.50;;;6.70;;
43702;SDS011;29304;56.146;40.396;2022-09-13T00:00:17;7.20;;;6.30;;
43702;SDS011;29304;56.146;40.396;2022-09-13T00:00:27;8.43;;;6.25;;
43702;SDS011;29304;56.146;40.396;2022-09-13T00:00:38;9.00;;;6.53;;
43702;SDS011;29304;56.146;40.396;2022-09-13T00:00:50;9.10;;;6.74;;
43702;SDS011;29304;56.146;40.396;2022-09-13T00:01:02;12.13;;;6.95;;
43702;SDS011;29304;56.146;40.396;2022-09-13T00:01:13;13.93;;;7.17;;
43702;SDS011;29304;56.146;40.396;2022-09-13T00:01:23;13.35;;;7.10;;
43702;SDS011;29304;56.146;40.396;2022-09-13T00:01:34;10.37;;;6.90;;
43702;SDS011;29304;56.146;40.396;2022-09-13T00:01:44;9.80;;;6.32;;
43702;SDS011;29304;56.146;40.396;2022-09-13T00:01:55;9.17;;;6.07;;
43702;SDS011;29304;56.146;40.396;2022-09-13T00:02:05;8.35;;;6.00;;
43702;SDS011;29304;56.146;40.396;2022-09-13T00:02:16;7.60;;;6.20;;
43702;SDS011;29304;56.146;40.396;2022-09-13T00:02:26;10.98;;;6.35;;
43702;SDS011;29304;56.146;40.396;2022-09-13T00:02:36;11.50;;;6.10;;
43702;SDS011;29304;56.146;40.396;2022-09-13T00:02:47;11.00;;;5.97;;
43702;SDS011;29304;56.146;40.396;2022-09-13T00:02:57;8.20;;;6.20;;
43702;SDS011;29304;56.146;40.396;2022-09-13T00:03:08;8.85;;;6.63;;
43702;SDS011;29304;56.146;40.396;2022-09-13T00:03:20;8.50;;;6.65;;
43702;SDS011;29304;56.146;40.396;2022-09-13T00:03:31;8.50;;;6.60;;
43702;SDS011;29304;56.146;40.396;2022-09-13T00:03:41;8.33;;;6.53;;
43702;SDS011;29304;56.146;40.396;2022-09-13T00:03:52;8.43;;;6.57;;
43702;SDS011;29304;56.146;40.396;2022-09-13T00:04:02;8.45;;;6.22;;
43702;SDS011;29304;56.146;40.396;2022-09-13T00:04:13;8.10;;;6.05;;
43702;SDS011;29304;56.146;40.396;2022-09-13T00:04:24;8.97;;;6.30;;
43702;SDS011;29304;56.146;40.396;2022-09-13T00:04:34;8.27;;;6.40;;
43702;SDS011;29304;56.146;40.396;2022-09-13T00:04:44;8.07;;;6.25;;
43702;SDS011;29304;56.146;40.396;2022-09-13T00:04:55;8.43;;;5.83;;
43702;SDS011;29304;56.146;40.396;2022-09-13T00:05:05;8.50;;;5.78;;
43702;SDS011;29304;56.146;40.396;2022-09-13T00:05:16;8.07;;;5.90;;
43702;SDS011;29304;56.146;40.396;2022-09-13T00:05:27;7.47;;;6.20;;
43702;SDS011;29304;56.146;40.396;2022-09-13T00:05:37;8.32;;;6.40;;
43702;SDS011;29304;56.146;40.396;2022-09-13T00:05:48;9.15;;;6.60;;
43702;SDS011;29304;56.146;40.396;2022-09-13T00:06:09;8.75;;;6.10;;
43702;SDS011;29304;56.146;40.396;2022-09-13T00:06:22;16.63;;;6.50;;
43702;SDS011;29304;56.146;40.396;2022-09-13T00:06:33;20.77;;;7.20;;
43702;SDS011;29304;56.146;40.396;2022-09-13T00:06:43;23.80;;;7.50;;
43702;SDS011;29304;56.146;40.396;2022-09-13T00:06:54;22.25;;;7.50;;
43702;SDS011;29304;56.146;40.396;2022-09-13T00:07:04;18.53;;;7.20;;
43702;SDS011;29304;56.146;40.396;2022-09-13T00:07:14;14.63;;;6.80;;
43702;SDS011;29304;56.146;40.396;2022-09-13T00:07:25;13.98;;;7.05;;
43702;SDS011;29304;56.146;40.396;2022-09-13T00:07:35;18.13;;;7.40;;
43702;SDS011;29304;56.146;40.396;2022-09-13T00:07:45;22.17;;;7.97;;
43702;SDS011;29304;56.146;40.396;2022-09-13T00:07:56;21.43;;;7.47;;
43702;SDS011;29304;56.146;40.396;2022-09-13T00:08:07;18.42;;;6.93;;
43702;SDS011;29304;56.146;40.396;2022-09-13T00:08:17;15.20;;;6.50;;
43702;SDS011;29304;56.146;40.396;2022-09-13T00:08:28;14.23;;;6.63;;
43702;SDS011;29304;56.146;40.396;2022-09-13T00:08:38;13.48;;;6.50;;
43702;SDS011;29304;56.146;40.396;2022-09-13T00:08:49;11.33;;;6.10;;
43702;SDS011;29304;56.146;40.396;2022-09-13T00:09:00;10.40;;;5.80;;
43702;SDS011;29304;56.146;40.396;2022-09-13T00:09:10;9.60;;;5.97;;
43702;SDS011;29304;56.146;40.396;2022-09-13T00:09:21;10.97;;;6.10;;
43702;SDS011;29304;56.146;40.396;2022-09-13T00:09:31;11.00;;;6.25;;
43702;SDS011;29304;56.146;40.396;2022-09-13T00:09:41;9.67;;;6.30;;
43702;SDS011;29304;56.146;40.396;2022-09-13T00:09:52;9.03;;;6.50;;
43702;SDS011;29304;56.146;40.396;2022-09-13T00:10:02;9.02;;;6.25;;
43702;SDS011;29304;56.146;40.396;2022-09-13T00:10:13;10.00;;;6.13;;
43702;SDS011;29304;56.146;40.396;2022-09-13T00:10:24;9.57;;;5.88;;
43702;SDS011;29304;56.146;40.396;2022-09-13T00:10:36;9.57;;;5.93;;
43702;SDS011;29304;56.146;40.396;2022-09-13T00:10:47;8.93;;;5.82;;
43702;SDS011;29304;56.146;40.396;2022-09-13T00:10:58;9.30;;;6.18;;
43702;SDS011;29304;56.146;40.396;2022-09-13T00:11:29;9.70;;;6.72;;
43702;SDS011;29304;56.146;40.396;2022-09-13T00:11:40;11.65;;;6.68;;
43702;SDS011;29304;56.146;40.396;2022-09-13T00:11:50;11.60;;;6.60;;
43702;SDS011;29304;56.146;40.396;2022-09-13T00:12:01;10.90;;;6.47;;
43702;SDS011;29304;56.146;40.396;2022-09-13T00:12:12;9.38;;;6.13;;
43702;SDS011;29304;56.146;40.396;2022-09-13T00:12:22;9.23;;;5.93;;
43702;SDS011;29304;56.146;40.396;2022-09-13T00:12:32;9.05;;;5.65;;
43702;SDS011;29304;56.146;40.396;2022-09-13T00:12:43;8.50;;;5.60;;
43702;SDS011;29304;56.146;40.396;2022-09-13T00:12:53;7.72;;;5.85;;
43702;SDS011;29304;56.146;40.396;2022-09-13T00:13:04;7.87;;;6.13;;
43702;SDS011;29304;56.146;40.396;2022-09-13T00:13:17;9.32;;;6.32;;
43702;SDS011;29304;56.146;40.396;2022-09-13T00:13:27;9.93;;;6.13;;
43702;SDS011;29304;56.146;40.396;2022-09-13T00:13:38;9.03;;;6.07;;
43702;SDS011;29304;56.146;40.396;2022-09-13T00:13:48;8.60;;;5.90;;
43702;SDS011;29304;56.146;40.396;2022-09-13T00:13:59;8.63;;;6.03;;
43702;SDS011;29304;56.146;40.396;2022-09-13T00:14:09;8.38;;;6.10;;
43702;SDS011;29304;56.146;40.396;2022-09-13T00:14:19;7.53;;;6.30;;
43702;SDS011;29304;56.146;40.396;2022-09-13T00:14:30;7.20;;;6.13;;
43702;SDS011;29304;56.146;40.396;2022-09-13T00:14:40;7.40;;;5.90;;
43702;SDS011;29304;56.146;40.396;2022-09-13T00:14:51;7.80;;;5.68;;
43702;SDS011;29304;56.146;40.396;2022-09-13T00:15:01;8.13;;;5.97;;
43702;SDS011;29304;56.146;40.396;2022-09-13T00:15:12;8.52;;;6.22;;
43702;SDS011;29304;56.146;40.396;2022-09-13T00:15:22;7.83;;;6.20;;
43702;SDS011;29304;56.146;40.396;2022-09-13T00:15:33;8.10;;;6.10;;
43702;SDS011;29304;56.146;40.396;2022-09-13T00:15:45;7.75;;;6.40;;
43702;SDS011;29304;56.146;40.396;2022-09-13T00:15:57;8.48;;;6.47;;
43702;SDS011;29304;56.146;40.396;2022-09-13T00:16:11;7.82;;;6.30;;
43702;SDS011;29304;56.146;40.396;2022-09-13T00:16:24;7.50;;;6.10;;
43702;SDS011;29304;56.146;40.396;2022-09-13T00:16:36;7.35;;;5.90;;
43702;SDS011;29304;56.146;40.396;2022-09-13T00:16:46;7.00;;;6.00;;
43702;SDS011;29304;56.146;40.396;2022-09-13T00:16:56;7.55;;;6.10;;
43702;SDS011;29304;56.146;40.396;2022-09-13T00:17:07;8.67;;;6.10;;
43702;SDS011;29304;56.146;40.396;2022-09-13T00:17:17;8.80;;;6.05;;
43702;SDS011;29304;56.146;40.396;2022-09-13T00:17:28;9.57;;;6.23;;
43702;SDS011;29304;56.146;40.396;2022-09-13T00:17:38;8.70;;;6.38;;
43702;SDS011;29304;56.146;40.396;2022-09-13T00:17:49;8.77;;;6.33;;
43702;SDS011;29304;56.146;40.396;2022-09-13T00:17:59;8.48;;;6.30;;
43702;SDS011;29304;56.146;40.396;2022-09-13T00:18:10;8.37;;;6.43;;
43702;SDS011;29304;56.146;40.396;2022-09-13T00:18:20;8.23;;;6.43;;
43702;SDS011;29304;56.146;40.396;2022-09-13T00:18:30;8.10;;;6.33;;
43702;SDS011;29304;56.146;40.396;2022-09-13T00:18:41;8.07;;;6.25;;
43702;SDS011;29304;56.146;40.396;2022-09-13T00:18:52;8.30;;;6.20;;
43702;SDS011;29304;56.146;40.396;2022-09-13T00:19:03;8.13;;;6.00;;
43702;SDS011;29304;56.146;40.396;2022-09-13T00:19:13;8.40;;;6.00;;
43702;SDS011;29304;56.146;40.396;2022-09-13T00:19:23;8.67;;;6.23;;
43702;SDS011;29304;56.146;40.396;2022-09-13T00:19:34;9.10;;;6.53;;
43702;SDS011;29304;56.146;40.396;2022-09-13T00:19:45;9.53;;;6.63;;
43702;SDS011;29304;56.146;40.396;2022-09-13T00:19:55;8.98;;;6.50;;
43702;SDS011;29304;56.146;40.396;2022-09-13T00:20:06;7.60;;;6.50;;
43702;SDS011;29304;56.146;40.396;2022-09-13T00:20:17;7.35;;;6.55;;
43702;SDS011;29304;56.146;40.396;2022-09-13T00:20:28;7.28;;;6.35;;
43702;SDS011;29304;56.146;40.396;2022-09-13T00:20:38;7.90;;;6.23;;
43702;SDS011;29304;56.146;40.396;2022-09-13T00:20:48;8.77;;;6.38;;
43702;SDS011;29304;56.146;40.396;2022-09-13T00:21:03;9.07;;;6.60;;
43702;SDS011;29304;56.146;40.396;2022-09-13T00:21:15;9.27;;;6.45;;
43702;SDS011;29304;56.146;40.396;2022-09-13T00:21:27;9.16;;;6.60;;
43702;SDS011;29304;56.146;40.396;2022-09-13T00:21:38;9.40;;;6.70;;
43702;SDS011;29304;56.146;40.396;2022-09-13T00:21:48;9.17;;;6.43;;
43702;SDS011;29304;56.146;40.396;2022-09-13T00:21:58;9.40;;;6.17;;
43702;SDS011;29304;56.146;40.396;2022-09-13T00:22:09;9.33;;;6.40;;
43702;SDS011;29304;56.146;40.396;2022-09-13T00:22:19;8.77;;;6.50;;
43702;SDS011;29304;56.146;40.396;2022-09-13T00:22:29;8.50;;;6.90;;
43702;SDS011;29304;56.146;40.396;2022-09-13T00:22:40;9.23;;;6.93;;
43702;SDS011;29304;56.146;40.396;2022-09-13T00:22:50;9.20;;;6.97;;
43702;SDS011;29304;56.146;40.396;2022-09-13T00:23:01;9.33;;;6.87;;
43702;SDS011;29304;56.146;40.396;2022-09-13T00:23:11;8.65;;;6.60;;
43702;SDS011;29304;56.146;40.396;2022-09-13T00:23:22;10.13;;;6.40;;
43702;SDS011;29304;56.146;40.396;2022-09-13T00:23:33;10.45;;;6.47;;
43702;SDS011;29304;56.146;40.396;2022-09-13T00:23:45;10.65;;;6.40;;
43702;SDS011;29304;56.146;40.396;2022-09-13T00:23:58;8.55;;;5.90;;
43702;SDS011;29304;56.146;40.396;2022-09-13T00:24:08;9.10;;;5.97;;
43702;SDS011;29304;56.146;40.396;2022-09-13T00:24:18;8.93;;;5.97;;
43702;SDS011;29304;56.146;40.396;2022-09-13T00:24:29;9.80;;;6.40;;
43702;SDS011;29304;56.146;40.396;2022-09-13T00:24:39;9.00;;;6.33;;
43702;SDS011;29304;56.146;40.396;2022-09-13T00:24:49;9.37;;;6.40;;
43702;SDS011;29304;56.146;40.396;2022-09-13T00:25:00;11.52;;;6.45;;
43702;SDS011;29304;56.146;40.396;2022-09-13T00:25:10;13.73;;;6.68;;
43702;SDS011;29304;56.146;40.396;2022-09-13T00:25:21;12.93;;;6.60;;
43702;SDS011;29304;56.146;40.396;2022-09-13T00:25:31;12.65;;;6.43;;
43702;SDS011;29304;56.146;40.396;2022-09-13T00:25:42;12.30;;;6.30;;
43702;SDS011;29304;56.146;40.396;2022-09-13T00:25:52;13.43;;;6.38;;
43702;SDS011;29304;56.146;40.396;2022-09-13T00:26:17;11.48;;;6.20;;
43702;SDS011;29304;56.146;40.396;2022-09-13T00:26:37;11.48;;;7.00;;
43702;SDS011;29304;56.146;40.396;2022-09-13T00:26:47;12.03;;;6.93;;
43702;SDS011;29304;56.146;40.396;2022-09-13T00:27:01;11.23;;;6.55;;
43702;SDS011;29304;56.146;40.396;2022-09-13T00:27:11;11.50;;;6.20;;
43702;SDS011;29304;56.146;40.396;2022-09-13T00:27:22;10.30;;;6.20;;
43702;SDS011;29304;56.146;40.396;2022-09-13T00:27:33;8.10;;;6.20;;
43702;SDS011;29304;56.146;40.396;2022-09-13T00:27:44;8.65;;;6.18;;
43702;SDS011;29304;56.146;40.396;2022-09-13T00:27:55;9.27;;;6.13;;
43702;SDS011;29304;56.146;40.396;2022-09-13T00:28:05;9.60;;;6.17;;
43702;SDS011;29304;56.146;40.396;2022-09-13T00:28:16;9.00;;;6.25;;
43702;SDS011;29304;56.146;40.396;2022-09-13T00:28:26;9.00;;;6.28;;
43702;SDS011;29304;56.146;40.396;2022-09-13T00:28:37;9.10;;;6.27;;
43702;SDS011;29304;56.146;40.396;2022-09-13T00:28:48;8.60;;;6.40;;
43702;SDS011;29304;56.146;40.396;2022-09-13T00:29:00;9.55;;;6.45;;
43702;SDS011;29304;56.146;40.396;2022-09-13T00:29:11;9.70;;;6.30;;
43702;SDS011;29304;56.146;40.396;2022-09-13T00:29:21;10.03;;;6.20;;
43702;SDS011;29304;56.146;40.396;2022-09-13T00:29:31;8.10;;;6.15;;
43702;SDS011;29304;56.146;40.396;2022-09-13T00:29:42;7.57;;;6.20;;
43702;SDS011;29304;56.146;40.396;2022-09-13T00:29:52;6.97;;;6.07;;
43702;SDS011;29304;56.146;40.396;2022-09-13T00:30:03;7.30;;;5.90;;
43702;SDS011;29304;56.146;40.396;2022-09-13T00:30:15;7.05;;;5.70;;
43702;SDS011;29304;56.146;40.396;2022-09-13T00:30:25;7.45;;;5.93;;
43702;SDS011;29304;56.146;40.396;2022-09-13T00:30:35;7.80;;;6.00;;
43702;SDS011;29304;56.146;40.396;2022-09-13T00:30:46;8.88;;;6.13;;
43702;SDS011;29304;56.146;40.396;2022-09-13T00:31:00;8.20;;;5.80;;
43702;SDS011;29304;56.146;40.396;2022-09-13T00:31:12;8.70;;;6.07;;
43702;SDS011;29304;56.146;40.396;2022-09-13T00:31:23;7.47;;;6.10;;
43702;SDS011;29304;56.146;40.396;2022-09-13T00:31:36;7.97;;;6.13;;
43702;SDS011;29304;56.146;40.396;2022-09-13T00:31:46;7.90;;;6.23;;
43702;SDS011;29304;56.146;40.396;2022-09-13T00:31:57;8.48;;;6.63;;
43702;SDS011;29304;56.146;40.396;2022-09-13T00:32:08;7.15;;;6.28;;
43702;SDS011;29304;56.146;40.396;2022-09-13T00:32:18;7.03;;;6.20;;
43702;SDS011;29304;56.146;40.396;2022-09-13T00:32:29;6.72;;;6.03;;
43702;SDS011;29304;56.146;40.396;2022-09-13T00:32:39;6.80;;;6.03;;
43702;SDS011;29304;56.146;40.396;2022-09-13T00:32:49;7.65;;;5.88;;
43702;SDS011;29304;56.146;40.396;2022-09-13T00:33:00;7.60;;;5.70;;
43702;SDS011;29304;56.146;40.396;2022-09-13T00:33:13;6.85;;;5.88;;
43702;SDS011;29304;56.146;40.396;2022-09-13T00:33:23;8.55;;;6.15;;
43702;SDS011;29304;56.146;40.396;2022-09-13T00:33:34;8.70;;;5.90;;
43702;SDS011;29304;56.146;40.396;2022-09-13T00:33:44;9.68;;;6.07;;
43702;SDS011;29304;56.146;40.396;2022-09-13T00:33:57;8.07;;;5.97;;
43702;SDS011;29304;56.146;40.396;2022-09-13T00:34:08;8.02;;;6.00;;
43702;SDS011;29304;56.146;40.396;2022-09-13T00:34:19;7.93;;;6.20;;
43702;SDS011;29304;56.146;40.396;2022-09-13T00:34:29;7.85;;;6.18;;
43702;SDS011;29304;56.146;40.396;2022-09-13T00:34:40;7.63;;;6.10;;
43702;SDS011;29304;56.146;40.396;2022-09-13T00:34:50;8.27;;;6.33;;
43702;SDS011;29304;56.146;40.396;2022-09-13T00:35:02;7.13;;;6.13;;
43702;SDS011;29304;56.146;40.396;2022-09-13T00:35:14;6.63;;;5.90;;
43702;SDS011;29304;56.146;40.396;2022-09-13T00:35:24;8.27;;;5.63;;
43702;SDS011;29304;56.146;40.396;2022-09-13T00:35:35;10.10;;;5.93;;
43702;SDS011;29304;56.146;40.396;2022-09-13T00:35:45;11.00;;;6.20;;
43702;SDS011;29304;56.146;40.396;2022-09-13T00:35:55;9.23;;;6.20;;
43702;SDS011;29304;56.146;40.396;2022-09-13T00:36:07;8.07;;;6.05;;
43702;SDS011;29304;56.146;40.396;2022-09-13T00:36:18;7.55;;;5.97;;
43702;SDS011;29304;56.146;40.396;2022-09-13T00:36:29;7.20;;;5.95;;
43702;SDS011;29304;56.146;40.396;2022-09-13T00:36:39;7.80;;;6.03;;
43702;SDS011;29304;56.146;40.396;2022-09-13T00:36:49;10.15;;;6.10;;
43702;SDS011;29304;56.146;40.396;2022-09-13T00:37:00;11.40;;;6.30;;
43702;SDS011;29304;56.146;40.396;2022-09-13T00:37:11;11.10;;;6.13;;
43702;SDS011;29304;56.146;40.396;2022-09-13T00:37:21;8.77;;;6.23;;
43702;SDS011;29304;56.146;40.396;2022-09-13T00:37:32;9.55;;;6.57;;
43702;SDS011;29304;56.146;40.396;2022-09-13T00:37:43;8.95;;;6.53;;
43702;SDS011;29304;56.146;40.396;2022-09-13T00:37:53;9.13;;;6.60;;
43702;SDS011;29304;56.146;40.396;2022-09-13T00:38:03;7.33;;;6.10;;
43702;SDS011;29304;56.146;40.396;2022-09-13T00:38:14;6.90;;;6.10;;
43702;SDS011;29304;56.146;40.396;2022-09-13T00:38:24;6.80;;;6.10;;
43702;SDS011;29304;56.146;40.396;2022-09-13T00:38:35;7.00;;;6.30;;
43702;SDS011;29304;56.146;40.396;2022-09-13T00:38:47;7.63;;;6.47;;
43702;SDS011;29304;56.146;40.396;2022-09-13T00:38:58;8.20;;;6.65;;
43702;SDS011;29304;56.146;40.396;2022-09-13T00:39:09;7.30;;;6.44;;
43702;SDS011;29304;56.146;40.396;2022-09-13T00:39:20;7.68;;;6.40;;
43702;SDS011;29304;56.146;40.396;2022-09-13T00:39:31;7.95;;;6.22;;
43702;SDS011;29304;56.146;40.396;2022-09-13T00:39:42;9.32;;;6.63;;
43702;SDS011;29304;56.146;40.396;2022-09-13T00:39:52;9.87;;;6.57;;
43702;SDS011;29304;56.146;40.396;2022-09-13T00:40:02;10.20;;;6.70;;
43702;SDS011;29304;56.146;40.396;2022-09-13T00:40:14;9.43;;;6.60;;
43702;SDS011;29304;56.146;40.396;2022-09-13T00:40:24;8.10;;;6.40;;
43702;SDS011;29304;56.146;40.396;2022-09-13T00:40:37;7.50;;;6.50;;
43702;SDS011;29304;56.146;40.396;2022-09-13T00:40:48;8.65;;;6.88;;
43702;SDS011;29304;56.146;40.396;2022-09-13T00:40:58;8.93;;;7.10;;
43702;SDS011;29304;56.146;40.396;2022-09-13T00:41:10;9.98;;;7.32;;
43702;SDS011;29304;56.146;40.396;2022-09-13T00:41:23;10.07;;;7.20;;
43702;SDS011;29304;56.146;40.396;2022-09-13T00:41:34;9.88;;;7.20;;
43702;SDS011;29304;56.146;40.396;2022-09-13T00:41:44;8.05;;;6.90;;
43702;SDS011;29304;56.146;40.396;2022-09-13T00:41:54;9.00;;;7.00;;
43702;SDS011;29304;56.146;40.396;2022-09-13T00:42:07;9.10;;;6.93;;
43702;SDS011;29304;56.146;40.396;2022-09-13T00:42:25;9.40;;;6.63;;
43702;SDS011;29304;56.146;40.396;2022-09-13T00:42:41;9.52;;;6.85;;
43702;SDS011;29304;56.146;40.396;2022-09-13T00:42:52;9.17;;;7.07;;
43702;SDS011;29304;56.146;40.396;2022-09-13T00:43:02;10.15;;;7.28;;
43702;SDS011;29304;56.146;40.396;2022-09-13T00:43:19;10.13;;;7.53;;
43702;SDS011;29304;56.146;40.396;2022-09-13T00:43:50;11.52;;;7.93;;
43702;SDS011;29304;56.146;40.396;2022-09-13T00:44:55;10.75;;;7.45;;
43702;SDS011;29304;56.146;40.396;2022-09-13T00:45:17;10.83;;;7.50;;
43702;SDS011;29304;56.146;40.396;2022-09-13T00:45:28;9.75;;;7.15;;
43702;SDS011;29304;56.146;40.396;2022-09-13T00:45:38;9.50;;;6.90;;
43702;SDS011;29304;56.146;40.396;2022-09-13T00:45:49;8.37;;;6.80;;
43702;SDS011;29304;56.146;40.396;2022-09-13T00:45:59;8.07;;;6.95;;
43702;SDS011;29304;56.146;40.396;2022-09-13T00:46:15;8.40;;;7.13;;
43702;SDS011;29304;56.146;40.396;2022-09-13T00:46:34;8.95;;;6.97;;
43702;SDS011;29304;56.146;40.396;2022-09-13T00:46:51;9.50;;;6.65;;
43702;SDS011;29304;56.146;40.396;2022-09-13T00:47:02;9.13;;;6.80;;
43702;SDS011;29304;56.146;40.396;2022-09-13T00:47:12;10.07;;;6.93;;
43702;SDS011;29304;56.146;40.396;2022-09-13T00:47:58;9.57;;;7.25;;
43702;SDS011;29304;56.146;40.396;2022-09-13T00:48:18;9.34;;;7.30;;
43702;SDS011;29304;56.146;40.396;2022-09-13T00:48:31;8.13;;;6.47;;
43702;SDS011;29304;56.146;40.396;2022-09-13T00:48:44;7.70;;;6.50;;
43702;SDS011;29304;56.146;40.396;2022-09-13T00:48:59;9.25;;;6.68;;
43702;SDS011;29304;56.146;40.396;2022-09-13T00:49:35;9.98;;;6.85;;
43702;SDS011;29304;56.146;40.396;2022-09-13T00:49:49;9.02;;;6.88;;
43702;SDS011;29304;56.146;40.396;2022-09-13T00:50:07;8.48;;;6.60;;
43702;SDS011;29304;56.146;40.396;2022-09-13T00:50:35;8.32;;;6.53;;
43702;SDS011;29304;56.146;40.396;2022-09-13T00:50:50;8.80;;;6.85;;
43702;SDS011;29304;56.146;40.396;2022-09-13T00:51:05;10.13;;;7.10;;
43702;SDS011;29304;56.146;40.396;2022-09-13T00:51:19;11.40;;;7.03;;
43702;SDS011;29304;56.146;40.396;2022-09-13T00:51:29;9.60;;;6.55;;
43702;SDS011;29304;56.146;40.396;2022-09-13T00:51:41;9.70;;;6.43;;
43702;SDS011;29304;56.146;40.396;2022-09-13T00:51:58;10.32;;;6.72;;
43702;SDS011;29304;56.146;40.396;2022-09-13T00:52:13;9.38;;;6.65;;
43702;SDS011;29304;56.146;40.396;2022-09-13T00:52:27;7.93;;;6.82;;
43702;SDS011;29304;56.146;40.396;2022-09-13T00:52:40;7.70;;;6.88;;
43702;SDS011;29304;56.146;40.396;2022-09-13T00:53:22;8.43;;;6.07;;
43702;SDS011;29304;56.146;40.396;2022-09-13T00:53:43;8.27;;;6.55;;
43702;SDS011;29304;56.146;40.396;2022-09-13T00:53:58;9.90;;;7.18;;
43702;SDS011;29304;56.146;40.396;2022-09-13T00:54:09;12.70;;;7.35;;
43702;SDS011;29304;56.146;40.396;2022-09-13T00:54:21;15.30;;;7.38;;
43702;SDS011;29304;56.146;40.396;2022-09-13T00:54:38;13.10;;;7.18;;
43702;SDS011;29304;56.146;40.396;2022-09-13T00:55:06;10.20;;;7.00;;
43702;SDS011;29304;56.146;40.396;2022-09-13T00:55:43;11.48;;;6.50;;
43702;SDS011;29304;56.146;40.396;2022-09-13T00:55:55;9.82;;;6.57;;
43702;SDS011;29304;56.146;40.396;2022-09-13T00:56:23;11.05;;;7.32;;
43702;SDS011;29304;56.146;40.396;2022-09-13T00:56:40;9.20;;;6.68;;
43702;SDS011;29304;56.146;40.396;2022-09-13T00:56:55;8.63;;;6.35;;
43702;SDS011;29304;56.146;40.396;2022-09-13T00:57:08;9.05;;;6.18;;
43702;SDS011;29304;56.146;40.396;2022-09-13T00:57:22;8.20;;;6.20;;
43702;SDS011;29304;56.146;40.396;2022-09-13T00:57:34;8.10;;;6.35;;
43702;SDS011;29304;56.146;40.396;2022-09-13T00:57:46;8.45;;;6.47;;
43702;SDS011;29304;56.146;40.396;2022-09-13T00:57:58;8.87;;;6.60;;
43702;SDS011;29304;56.146;40.396;2022-09-13T00:58:24;9.10;;;6.40;;
43702;SDS011;29304;56.146;40.396;2022-09-13T00:58:41;8.27;;;6.45;;
43702;SDS011;29304;56.146;40.396;2022-09-13T00:59:00;8.82;;;6.45;;
43702;SDS011;29304;56.146;40.396;2022-09-13T00:59:15;10.38;;;6.47;;
43702;SDS011;29304;56.146;40.396;2022-09-13T00:59:44;10.48;;;6.60;;
43702;SDS011;29304;56.146;40.396;2022-09-13T01:00:19;9.65;;;6.85;;
43702;SDS011;29304;56.146;40.396;2022-09-13T01:00:30;10.27;;;6.63;;
43702;SDS011;29304;56.146;40.396;2022-09-13T01:00:41;8.68;;;6.57;;
43702;SDS011;29304;56.146;40.396;2022-09-13T01:00:53;10.35;;;7.00;;
43702;SDS011;29304;56.146;40.396;2022-09-13T01:01:08;9.80;;;6.97;;
43702;SDS011;29304;56.146;40.396;2022-09-13T01:01:22;8.55;;;6.68;;
43702;SDS011;29304;56.146;40.396;2022-09-13T01:01:46;9.65;;;6.65;;
43702;SDS011;29304;56.146;40.396;2022-09-13T01:02:00;9.48;;;6.50;;
43702;SDS011;29304;56.146;40.396;2022-09-13T01:02:12;8.95;;;6.45;;
43702;SDS011;29304;56.146;40.396;2022-09-13T01:02:23;8.55;;;6.78;;
43702;SDS011;29304;56.146;40.396;2022-09-13T01:02:34;8.98;;;7.22;;
43702;SDS011;29304;56.146;40.396;2022-09-13T01:02:46;10.02;;;7.32;;
43702;SDS011;29304;56.146;40.396;2022-09-13T01:03:03;10.80;;;6.90;;
43702;SDS011;29304;56.146;40.396;2022-09-13T01:03:17;8.98;;;6.75;;
43702;SDS011;29304;56.146;40.396;2022-09-13T01:03:32;8.82;;;6.75;;
43702;SDS011;29304;56.146;40.396;2022-09-13T01:03:44;10.07;;;7.25;;
43702;SDS011;29304;56.146;40.396;2022-09-13T01:03:57;9.90;;;7.30;;
43702;SDS011;29304;56.146;40.396;2022-09-13T01:04:08;10.43;;;7.07;;
43702;SDS011;29304;56.146;40.396;2022-09-13T01:04:20;8.85;;;6.60;;
43702;SDS011;29304;56.146;40.396;2022-09-13T01:04:34;7.65;;;6.70;;
43702;SDS011;29304;56.146;40.396;2022-09-13T01:04:46;7.65;;;6.85;;
43702;SDS011;29304;56.146;40.396;2022-09-13T01:04:56;9.10;;;7.20;;
43702;SDS011;29304;56.146;40.396;2022-09-13T01:05:07;9.73;;;7.07;;
43702;SDS011;29304;56.146;40.396;2022-09-13T01:05:20;10.52;;;7.50;;
43702;SDS011;29304;56.146;40.396;2022-09-13T01:05:35;10.73;;;7.70;;
43702;SDS011;29304;56.146;40.396;2022-09-13T01:05:52;10.98;;;7.35;;
43702;SDS011;29304;56.146;40.396;2022-09-13T01:06:12;9.38;;;7.10;;
43702;SDS011;29304;56.146;40.396;2022-09-13T01:06:26;9.55;;;7.35;;
43702;SDS011;29304;56.146;40.396;2022-09-13T01:06:39;9.45;;;7.28;;
43702;SDS011;29304;56.146;40.396;2022-09-13T01:06:51;10.05;;;7.53;;
43702;SDS011;29304;56.146;40.396;2022-09-13T01:07:06;10.13;;;7.60;;
43702;SDS011;29304;56.146;40.396;2022-09-13T01:07:18;9.30;;;7.30;;
43702;SDS011;29304;56.146;40.396;2022-09-13T01:07:29;9.40;;;7.53;;
43702;SDS011;29304;56.146;40.396;2022-09-13T01:07:39;8.77;;;7.40;;
43702;SDS011;29304;56.146;40.396;2022-09-13T01:07:50;11.70;;;7.35;;
43702;SDS011;29304;56.146;40.396;2022-09-13T01:08:01;11.52;;;6.90;;
43702;SDS011;29304;56.146;40.396;2022-09-13T01:08:13;10.80;;;6.85;;
43702;SDS011;29304;56.146;40.396;2022-09-13T01:08:31;9.20;;;7.03;;
43702;SDS011;29304;56.146;40.396;2022-09-13T01:08:44;10.18;;;7.10;;
43702;SDS011;29304;56.146;40.396;2022-09-13T01:08:58;10.50;;;7.43;;
43702;SDS011;29304;56.146;40.396;2022-09-13T01:09:13;10.40;;;7.60;;
43702;SDS011;29304;56.146;40.396;2022-09-13T01:09:24;9.73;;;7.38;;
43702;SDS011;29304;56.146;40.396;2022-09-13T01:09:36;9.20;;;7.38;;
43702;SDS011;29304;56.146;40.396;2022-09-13T01:09:50;9.02;;;7.35;;
43702;SDS011;29304;56.146;40.396;2022-09-13T01:10:02;8.02;;;7.05;;
43702;SDS011;29304;56.146;40.396;2022-09-13T01:10:16;8.70;;;7.07;;
43702;SDS011;29304;56.146;40.396;2022-09-13T01:10:27;8.80;;;7.13;;
43702;SDS011;29304;56.146;40.396;2022-09-13T01:10:41;9.32;;;7.13;;
43702;SDS011;29304;56.146;40.396;2022-09-13T01:10:52;8.88;;;7.00;;
43702;SDS011;29304;56.146;40.396;2022-09-13T01:11:05;8.60;;;6.80;;
43702;SDS011;29304;56.146;40.396;2022-09-13T01:11:57;8.70;;;7.00;;
43702;SDS011;29304;56.146;40.396;2022-09-13T01:12:59;13.45;;;7.70;;
43702;SDS011;29304;56.146;40.396;2022-09-13T01:13:22;12.38;;;7.85;;
43702;SDS011;29304;56.146;40.396;2022-09-13T01:13:35;10.68;;;7.63;;
43702;SDS011;29304;56.146;40.396;2022-09-13T01:13:45;9.95;;;7.53;;
43702;SDS011;29304;56.146;40.396;2022-09-13T01:13:57;8.80;;;7.40;;
43702;SDS011;29304;56.146;40.396;2022-09-13T01:14:08;9.20;;;7.25;;
43702;SDS011;29304;56.146;40.396;2022-09-13T01:14:19;8.95;;;7.10;;
43702;SDS011;29304;56.146;40.396;2022-09-13T01:14:30;10.70;;;7.28;;
43702;SDS011;29304;56.146;40.396;2022-09-13T01:14:41;12.38;;;7.65;;
43702;SDS011;29304;56.146;40.396;2022-09-13T01:14:53;13.27;;;7.75;;
43702;SDS011;29304;56.146;40.396;2022-09-13T01:15:06;10.63;;;7.53;;
43702;SDS011;29304;56.146;40.396;2022-09-13T01:15:17;10.50;;;7.77;;
43702;SDS011;29304;56.146;40.396;2022-09-13T01:15:27;10.73;;;7.82;;
43702;SDS011;29304;56.146;40.396;2022-09-13T01:15:38;11.43;;;7.57;;
43702;SDS011;29304;56.146;40.396;2022-09-13T01:15:48;12.27;;;7.68;;
43702;SDS011;29304;56.146;40.396;2022-09-13T01:15:59;13.90;;;7.85;;
43702;SDS011;29304;56.146;40.396;2022-09-13T01:16:10;12.77;;;8.10;;
43702;SDS011;29304;56.146;40.396;2022-09-13T01:16:20;11.73;;;8.27;;